Time;durP1;ratioP1;P1;durP2;ratioP2;P2;SDS_P1;SDS_P2;PMS_P1;PMS_P2;Temp;Humidity;BMP_temperature;BMP_pressure;BME280_temperature;BME280_humidity;BME280_pressure;Samples;Min_cycle;Max_cycle;Signal;HPM_P1;HPM_P2
2022/10/22 00:01:08;;;;;;;;;;;10.20;99.90;;;;;;5095349;28;20365;-67
2022/10/22 00:03:34;;;;;;;;;;;10.20;99.90;;;;;;5095294;28;20282;-67
2022/10/22 00:05:59;;;;;;;;;;;10.20;99.90;;;;;;5095517;28;20008;-67
2022/10/22 00:08:25;;;;;;;;;;;10.30;99.90;;;;;;5095220;28;20391;-67
2022/10/22 00:10:51;;;;;;;;;;;10.20;99.90;;;;;;5095431;28;19908;-67
2022/10/22 00:13:17;;;;;;;;;;;10.20;99.90;;;;;;5095085;28;19912;-67
2022/10/22 00:15:43;;;;;;;;;;;10.30;99.90;;;;;;5095304;28;19908;-67
2022/10/22 00:18:08;;;;;;;;;;;10.20;99.90;;;;;;5095104;28;20010;-67
2022/10/22 00:20:34;;;;;;;;;;;10.20;99.90;;;;;;5094448;28;19931;-67
2022/10/22 00:22:59;;;;;;;;;;;10.20;99.90;;;;;;5094957;28;20379;-67
2022/10/22 00:25:24;;;;;;;;;;;10.20;99.90;;;;;;5094891;28;19908;-67
2022/10/22 00:27:50;;;;;;;;;;;10.20;99.90;;;;;;5094853;28;19957;-66
2022/10/22 00:30:15;;;;;;;;;;;10.30;99.90;;;;;;5094822;28;19916;-67
2022/10/22 00:32:41;;;;;;;;;;;10.30;99.90;;;;;;5094745;28;20124;-67
2022/10/22 00:35:06;;;;;;;;;;;10.30;99.90;;;;;;5094716;28;19912;-67
2022/10/22 00:37:32;;;;;;;;;;;10.40;99.90;;;;;;5094502;28;19920;-67
2022/10/22 00:39:57;;;;;;;;;;;10.40;99.90;;;;;;5094881;28;20368;-67
2022/10/22 00:42:29;;;;;;;;;;;10.40;99.90;;;;;;5094616;28;19987;-67
2022/10/22 00:45:14;;;;;;;;;;;10.40;99.90;;;;;;5094518;28;20373;-67
2022/10/22 00:47:43;;;;;;;;;;;10.40;99.90;;;;;;5094430;28;19915;-67
2022/10/22 00:50:11;;;;;;;;;;;10.30;99.90;;;;;;5094436;28;19908;-67
2022/10/22 00:52:37;;;;;;;;;;;10.30;99.90;;;;;;5094404;28;19912;-67
2022/10/22 00:55:02;;;;;;;;;;;10.30;99.90;;;;;;5094312;28;20449;-66
2022/10/22 00:57:28;;;;;;;;;;;10.30;99.90;;;;;;5094292;28;19916;-67
2022/10/22 00:59:54;;;;;;;;;;;10.40;99.90;;;;;;5094550;28;19915;-67
2022/10/22 01:02:20;;;;;;;;;;;10.40;99.90;;;;;;5094224;28;19915;-67
2022/10/22 01:04:45;;;;;;;;;;;10.40;99.90;;;;;;5094191;28;19908;-67
2022/10/22 01:07:15;;;;;;;;;;;10.40;99.90;;;;;;5094499;28;19908;-67
2022/10/22 01:09:45;;;;;;;;;;;10.50;99.90;;;;;;5094110;28;20004;-66
2022/10/22 01:12:21;;;;;;;;;;;10.50;99.90;;;;;;5094052;28;19916;-67
2022/10/22 01:15:06;;;;;;;;;;;10.50;99.90;;;;;;5094341;28;20303;-67
2022/10/22 01:17:52;;;;;;;;;;;10.50;99.90;;;;;;5093921;28;20369;-66
2022/10/22 01:20:37;;;;;;;;;;;10.50;99.90;;;;;;5093859;28;19908;-67
2022/10/22 01:23:20;;;;;;;;;;;10.50;99.90;;;;;;5093888;28;20005;-67
2022/10/22 01:25:52;;;;;;;;;;;10.50;99.90;;;;;;5092772;28;20297;-67
2022/10/22 01:28:27;;;;;;;;;;;10.40;99.90;;;;;;5093897;28;20436;-67
2022/10/22 01:30:54;;;;;;;;;;;10.40;99.90;;;;;;5093803;28;19908;-67
2022/10/22 01:33:20;;;;;;;;;;;10.40;99.90;;;;;;5093711;28;19915;-66
2022/10/22 01:35:46;;;;;;;;;;;10.40;99.90;;;;;;5093508;28;19970;-67
2022/10/22 01:38:14;;;;;;;;;;;10.30;99.90;;;;;;5094011;28;19993;-67
2022/10/22 01:40:40;;;;;;;;;;;10.30;99.90;;;;;;5094019;28;19915;-67
2022/10/22 01:43:07;;;;;;;;;;;10.30;99.90;;;;;;5093693;28;19916;-67
2022/10/22 01:45:37;;;;;;;;;;;10.30;99.90;;;;;;5093984;28;19915;-67
2022/10/22 01:50:47;;;;;;;;;;;10.40;99.90;;;;;;5144550;27;19912;-65
2022/10/22 01:53:17;;;;;;;;;;;10.30;99.90;;;;;;5111804;28;19916;-65
2022/10/22 01:55:51;;;;;;;;;;;10.30;99.90;;;;;;5111769;28;19908;-65
2022/10/22 01:58:22;;;;;;;;;;;10.20;99.90;;;;;;5111438;28;20307;-66
2022/10/22 02:01:07;;;;;;;;;;;10.20;99.90;;;;;;5111439;28;19908;-66
2022/10/22 02:03:37;;;;;;;;;;;10.20;99.90;;;;;;5111361;28;19912;-65
2022/10/22 02:06:07;;;;;;;;;;;10.20;99.90;;;;;;5111298;28;19912;-66
2022/10/22 02:08:34;;;;;;;;;;;10.10;99.90;;;;;;5111503;28;19927;-66
2022/10/22 02:10:59;;;;;;;;;;;10.10;99.90;;;;;;5111239;28;19951;-66
2022/10/22 02:13:27;;;;;;;;;;;10.10;99.90;;;;;;5111184;28;19944;-67
2022/10/22 02:15:53;;;;;;;;;;;10.00;99.90;;;;;;5111175;28;19957;-67
2022/10/22 02:18:20;;;;;;;;;;;10.00;99.90;;;;;;5111080;28;19962;-66
2022/10/22 02:20:46;;;;;;;;;;;10.00;99.90;;;;;;5111050;28;19954;-66
2022/10/22 02:23:12;;;;;;;;;;;10.00;99.90;;;;;;5109751;28;19951;-65
2022/10/22 02:25:39;;;;;;;;;;;10.00;99.90;;;;;;5111213;28;19908;-66
2022/10/22 02:28:24;;;;;;;;;;;10.10;99.90;;;;;;5111173;28;19912;-66
2022/10/22 02:30:53;;;;;;;;;;;10.10;99.90;;;;;;5110783;28;19912;-66
2022/10/22 02:33:22;;;;;;;;;;;10.10;99.90;;;;;;5111124;28;19909;-66
2022/10/22 02:35:48;;;;;;;;;;;10.10;99.90;;;;;;5111018;28;20419;-66
2022/10/22 02:38:15;;;;;;;;;;;10.10;99.90;;;;;;5110952;28;20277;-65
2022/10/22 02:40:40;;;;;;;;;;;10.10;99.90;;;;;;5110773;28;19908;-66
2022/10/22 02:43:06;;;;;;;;;;;10.00;99.90;;;;;;5110620;28;19915;-66
2022/10/22 02:45:32;;;;;;;;;;;10.00;99.90;;;;;;5110669;28;19957;-66
2022/10/22 02:47:58;;;;;;;;;;;10.00;99.90;;;;;;5110666;28;19954;-66
2022/10/22 02:50:23;;;;;;;;;;;10.00;99.90;;;;;;5110212;28;20342;-66
2022/10/22 02:52:49;;;;;;;;;;;10.00;99.90;;;;;;5110373;28;19915;-66
2022/10/22 02:55:14;;;;;;;;;;;10.00;99.90;;;;;;5110434;28;19943;-66
2022/10/22 02:57:40;;;;;;;;;;;10.00;99.90;;;;;;5110661;28;19908;-67
2022/10/22 03:00:06;;;;;;;;;;;10.00;99.90;;;;;;5107757;28;19947;-66
2022/10/22 03:02:31;;;;;;;;;;;10.00;99.90;;;;;;5096627;28;20384;-66
2022/10/22 03:04:57;;;;;;;;;;;10.00;99.90;;;;;;5096846;28;19908;-66
2022/10/22 03:07:22;;;;;;;;;;;10.00;99.90;;;;;;5096546;28;19962;-71
2022/10/22 03:09:48;;;;;;;;;;;10.10;99.90;;;;;;5096485;28;19919;-66
2022/10/22 03:12:13;;;;;;;;;;;10.00;99.90;;;;;;5096514;28;19912;-66
2022/10/22 03:14:39;;;;;;;;;;;10.00;99.90;;;;;;5096709;28;19908;-66
2022/10/22 03:17:04;;;;;;;;;;;10.00;99.90;;;;;;5096406;28;19915;-66
2022/10/22 03:19:30;;;;;;;;;;;10.00;99.90;;;;;;5096318;28;19908;-66
2022/10/22 03:21:58;;;;;;;;;;;10.10;99.90;;;;;;5095026;28;19908;-66
2022/10/22 03:24:26;;;;;;;;;;;10.20;99.90;;;;;;5096263;28;19908;-66
2022/10/22 03:26:52;;;;;;;;;;;10.20;99.90;;;;;;5096201;28;19908;-66
2022/10/22 03:29:21;;;;;;;;;;;10.20;99.90;;;;;;5096128;28;19919;-66
2022/10/22 03:31:46;;;;;;;;;;;10.20;99.90;;;;;;5096400;28;19908;-66
2022/10/22 03:34:12;;;;;;;;;;;10.20;99.90;;;;;;5096037;28;19981;-66
2022/10/22 03:36:39;;;;;;;;;;;10.30;99.90;;;;;;5096288;28;19915;-66
2022/10/22 03:39:04;;;;;;;;;;;10.20;99.90;;;;;;5095956;28;19908;-66
2022/10/22 03:41:30;;;;;;;;;;;10.30;99.90;;;;;;5096166;28;19957;-66
2022/10/22 03:43:56;;;;;;;;;;;10.20;99.90;;;;;;5095846;28;20396;-66
2022/10/22 03:46:22;;;;;;;;;;;10.20;99.90;;;;;;5096051;28;19991;-66
2022/10/22 03:48:47;;;;;;;;;;;10.20;99.90;;;;;;5095706;28;20011;-66
2022/10/22 03:51:12;;;;;;;;;;;10.10;99.90;;;;;;5095796;28;20361;-67
2022/10/22 03:53:38;;;;;;;;;;;10.20;99.90;;;;;;5095648;28;19908;-66
2022/10/22 03:56:08;;;;;;;;;;;10.20;99.90;;;;;;5095657;28;19909;-66
2022/10/22 03:58:33;;;;;;;;;;;10.20;99.90;;;;;;5095614;28;20003;-66
2022/10/22 04:01:03;;;;;;;;;;;10.20;99.90;;;;;;5095589;28;19978;-66
2022/10/22 04:03:28;;;;;;;;;;;10.10;99.90;;;;;;5095531;28;19908;-66
2022/10/22 04:05:59;;;;;;;;;;;10.10;99.90;;;;;;5094539;28;19908;-66
2022/10/22 04:08:24;;;;;;;;;;;10.20;99.90;;;;;;5095301;28;19909;-66
2022/10/22 04:10:50;;;;;;;;;;;10.20;99.90;;;;;;5095340;28;19915;-66
2022/10/22 04:13:16;;;;;;;;;;;10.20;99.90;;;;;;5094563;28;19915;-66
2022/10/22 04:15:41;;;;;;;;;;;10.20;99.90;;;;;;5095308;28;20309;-66
2022/10/22 04:18:07;;;;;;;;;;;10.20;99.90;;;;;;5095213;28;20281;-66
2022/10/22 04:20:32;;;;;;;;;;;10.30;99.90;;;;;;5095139;28;20006;-67
2022/10/22 04:22:58;;;;;;;;;;;10.30;99.90;;;;;;5095121;28;19912;-66
2022/10/22 04:25:23;;;;;;;;;;;10.30;99.90;;;;;;5095051;28;19961;-66
2022/10/22 04:27:48;;;;;;;;;;;10.40;99.90;;;;;;5095049;28;19908;-66
2022/10/22 04:30:14;;;;;;;;;;;10.30;99.90;;;;;;5094904;28;19965;-66
2022/10/22 04:32:39;;;;;;;;;;;10.30;99.90;;;;;;5095225;28;19938;-66
2022/10/22 04:35:05;;;;;;;;;;;10.30;99.90;;;;;;5095160;28;20405;-66
2022/10/22 04:37:31;;;;;;;;;;;10.30;99.90;;;;;;5093632;28;19908;-67
2022/10/22 04:39:57;;;;;;;;;;;10.30;99.90;;;;;;5095040;28;19908;-66
2022/10/22 04:42:22;;;;;;;;;;;10.40;99.90;;;;;;5095002;28;19912;-66
2022/10/22 04:44:48;;;;;;;;;;;10.40;99.90;;;;;;5094703;28;20361;-66
2022/10/22 04:47:13;;;;;;;;;;;10.50;99.90;;;;;;5094670;28;19908;-66
2022/10/22 04:49:39;;;;;;;;;;;10.50;99.90;;;;;;5094428;28;19920;-66
2022/10/22 04:52:04;;;;;;;;;;;10.50;99.90;;;;;;5094605;28;19909;-66
2022/10/22 04:54:30;;;;;;;;;;;10.50;99.90;;;;;;5094788;28;19917;-66
2022/10/22 04:56:55;;;;;;;;;;;10.50;99.90;;;;;;5094478;28;19939;-66
2022/10/22 04:59:21;;;;;;;;;;;10.50;99.90;;;;;;5094691;28;19908;-66
2022/10/22 05:01:46;;;;;;;;;;;10.60;99.90;;;;;;5094422;28;20425;-67
2022/10/22 05:04:13;;;;;;;;;;;10.60;99.90;;;;;;5093065;28;20401;-66
2022/10/22 05:06:39;;;;;;;;;;;10.60;99.90;;;;;;5094621;28;20273;-66
2022/10/22 05:09:07;;;;;;;;;;;10.60;99.90;;;;;;5094218;28;19961;-66
2022/10/22 05:11:33;;;;;;;;;;;10.60;99.90;;;;;;5094185;28;19979;-66
2022/10/22 05:14:00;;;;;;;;;;;10.50;99.90;;;;;;5094450;28;19908;-66
2022/10/22 05:16:27;;;;;;;;;;;10.50;99.90;;;;;;5094164;28;19961;-66
2022/10/22 05:18:52;;;;;;;;;;;10.40;99.90;;;;;;5094095;28;20370;-66
2022/10/22 05:21:18;;;;;;;;;;;10.40;99.90;;;;;;5094117;28;20000;-66
2022/10/22 05:23:45;;;;;;;;;;;10.40;99.90;;;;;;5093772;28;20288;-66
2022/10/22 05:26:11;;;;;;;;;;;10.40;99.90;;;;;;5094019;28;19985;-66
2022/10/22 05:28:37;;;;;;;;;;;10.50;99.90;;;;;;5094038;28;20362;-66
2022/10/22 05:31:03;;;;;;;;;;;10.50;99.90;;;;;;5093981;28;19968;-65
2022/10/22 05:33:29;;;;;;;;;;;10.40;99.90;;;;;;5093864;28;19912;-66
2022/10/22 05:35:54;;;;;;;;;;;10.30;99.90;;;;;;5094067;28;20422;-67
2022/10/22 05:38:20;;;;;;;;;;;10.20;99.90;;;;;;5093841;28;19908;-66
2022/10/22 05:40:45;;;;;;;;;;;10.30;99.90;;;;;;5093846;28;19915;-66
2022/10/22 05:43:11;;;;;;;;;;;10.20;99.90;;;;;;5092659;28;19957;-66
2022/10/22 05:45:37;;;;;;;;;;;10.20;99.90;;;;;;5093747;28;19908;-66
2022/10/22 05:48:03;;;;;;;;;;;10.20;99.90;;;;;;5093854;28;19943;-66
2022/10/22 05:50:28;;;;;;;;;;;10.20;99.90;;;;;;5093508;28;19943;-66
2022/10/22 05:52:54;;;;;;;;;;;10.30;99.90;;;;;;5093746;28;19908;-66
2022/10/22 05:55:19;;;;;;;;;;;10.30;99.90;;;;;;5093996;28;19915;-66
2022/10/22 05:57:45;;;;;;;;;;;10.30;99.90;;;;;;5093979;28;19908;-66
2022/10/22 06:00:10;;;;;;;;;;;10.30;99.90;;;;;;5093656;28;20420;-66
2022/10/22 06:02:36;;;;;;;;;;;10.50;99.90;;;;;;5093626;28;19915;-68
2022/10/22 06:05:01;;;;;;;;;;;10.50;99.90;;;;;;5093615;28;19908;-66
2022/10/22 06:07:27;;;;;;;;;;;10.40;99.90;;;;;;5093600;28;19908;-66
2022/10/22 06:09:52;;;;;;;;;;;10.40;99.90;;;;;;5093478;28;20365;-66
2022/10/22 06:12:18;;;;;;;;;;;10.30;99.90;;;;;;5093503;28;19909;-66
2022/10/22 06:14:43;;;;;;;;;;;10.30;99.90;;;;;;5093526;28;19998;-66
2022/10/22 06:17:10;;;;;;;;;;;10.40;99.90;;;;;;5093516;28;19940;-66
2022/10/22 06:19:35;;;;;;;;;;;10.40;99.90;;;;;;5093498;28;19915;-66
2022/10/22 06:22:02;;;;;;;;;;;10.40;99.90;;;;;;5093718;28;19908;-67
2022/10/22 06:24:27;;;;;;;;;;;10.30;99.90;;;;;;5093446;28;19908;-66
2022/10/22 06:26:53;;;;;;;;;;;10.30;99.90;;;;;;5092230;28;20094;-66
2022/10/22 06:29:18;;;;;;;;;;;10.40;99.90;;;;;;5093558;28;19912;-66
2022/10/22 06:31:43;;;;;;;;;;;10.50;99.90;;;;;;5093638;28;19958;-66
2022/10/22 06:34:11;;;;;;;;;;;10.60;99.90;;;;;;5093336;28;19908;-66
2022/10/22 06:36:36;;;;;;;;;;;10.60;99.90;;;;;;5095934;28;20349;-66
2022/10/22 06:39:02;;;;;;;;;;;10.60;99.90;;;;;;5097161;28;20049;-66
2022/10/22 06:41:28;;;;;;;;;;;10.60;99.90;;;;;;5097384;28;20100;-66
2022/10/22 06:43:53;;;;;;;;;;;10.70;99.90;;;;;;5097265;28;19908;-66
2022/10/22 06:46:19;;;;;;;;;;;10.70;99.90;;;;;;5097224;28;19914;-66
2022/10/22 06:48:49;;;;;;;;;;;10.70;99.90;;;;;;5096647;28;19927;-66
2022/10/22 06:51:14;;;;;;;;;;;10.80;99.90;;;;;;5096923;28;19908;-66
2022/10/22 06:53:40;;;;;;;;;;;11.30;99.90;;;;;;5097091;28;19915;-67
2022/10/22 06:56:07;;;;;;;;;;;12.40;99.90;;;;;;5097101;28;20364;-67
2022/10/22 06:58:33;;;;;;;;;;;13.40;99.90;;;;;;5096717;28;20015;-67
2022/10/22 07:01:00;;;;;;;;;;;13.90;99.90;;;;;;5096755;28;20006;-68
2022/10/22 07:03:25;;;;;;;;;;;14.40;99.90;;;;;;5096657;28;20358;-68
2022/10/22 07:05:51;;;;;;;;;;;14.80;99.90;;;;;;5096623;28;19915;-68
2022/10/22 07:08:16;;;;;;;;;;;15.00;99.90;;;;;;5096864;28;20024;-68
2022/10/22 07:10:42;;;;;;;;;;;15.30;99.90;;;;;;5096561;28;20397;-68
2022/10/22 07:13:07;;;;;;;;;;;15.50;99.90;;;;;;5095437;28;19908;-69
2022/10/22 07:15:33;;;;;;;;;;;15.60;99.90;;;;;;5096482;28;19912;-69
2022/10/22 07:17:58;;;;;;;;;;;16.20;99.90;;;;;;5096404;28;19915;-69
2022/10/22 07:20:24;;;;;;;;;;;17.00;99.90;;;;;;5096389;28;20365;-69
2022/10/22 07:22:49;;;;;;;;;;;17.70;99.90;;;;;;5096575;28;19912;-69
2022/10/22 07:25:15;;;;;;;;;;;17.90;99.90;;;;;;5096234;28;19939;-70
2022/10/22 07:27:40;;;;;;;;;;;18.10;99.90;;;;;;5096262;28;20365;-70
2022/10/22 07:30:06;;;;;;;;;;;18.40;99.90;;;;;;5096169;28;19919;-71
2022/10/22 07:32:31;;;;;;;;;;;19.00;99.90;;;;;;5096138;28;19915;-71
2022/10/22 07:34:57;;;;;;;;;;;19.00;99.90;;;;;;5096098;28;20316;-70
2022/10/22 07:37:22;;;;;;;;;;;19.30;99.90;;;;;;5094761;28;19912;-70
2022/10/22 07:39:48;;;;;;;;;;;19.00;99.90;;;;;;5095975;28;19995;-70
2022/10/22 07:42:13;;;;;;;;;;;18.30;99.90;;;;;;5096007;28;19908;-70
2022/10/22 07:44:38;;;;;;;;;;;18.10;99.90;;;;;;5095942;28;19915;-70
2022/10/22 07:47:04;;;;;;;;;;;18.60;99.90;;;;;;5095552;28;20045;-70
2022/10/22 07:49:29;;;;;;;;;;;18.60;99.90;;;;;;5095240;28;20373;-70
2022/10/22 07:51:55;;;;;;;;;;;19.10;99.90;;;;;;5095694;28;19908;-70
2022/10/22 07:54:21;;;;;;;;;;;19.00;99.90;;;;;;5095752;28;19919;-70
2022/10/22 07:56:47;;;;;;;;;;;18.60;99.90;;;;;;5094420;28;19909;-70
2022/10/22 07:59:12;;;;;;;;;;;18.80;99.90;;;;;;5095631;28;20373;-71
2022/10/22 08:01:38;;;;;;;;;;;19.30;99.90;;;;;;5095524;28;19908;-70
2022/10/22 08:04:03;;;;;;;;;;;19.50;99.90;;;;;;5095460;28;19908;-70
2022/10/22 08:06:29;;;;;;;;;;;19.40;99.90;;;;;;5095468;28;19912;-70
2022/10/22 08:08:54;;;;;;;;;;;18.60;99.90;;;;;;5095368;28;19965;-69
2022/10/22 08:11:20;;;;;;;;;;;17.90;99.90;;;;;;5095363;28;20358;-69
2022/10/22 08:13:45;;;;;;;;;;;17.40;99.90;;;;;;5095330;28;20369;-69
2022/10/22 08:16:11;;;;;;;;;;;17.10;99.90;;;;;;5095294;28;19931;-69
2022/10/22 08:18:37;;;;;;;;;;;16.90;99.90;;;;;;5095557;28;19908;-69
2022/10/22 08:21:03;;;;;;;;;;;16.90;99.90;;;;;;5095484;28;19916;-68
2022/10/22 08:23:28;;;;;;;;;;;16.80;99.90;;;;;;5095166;28;19914;-69
2022/10/22 08:25:54;;;;;;;;;;;16.90;99.90;;;;;;5095070;28;19934;-69
2022/10/22 08:28:19;;;;;;;;;;;16.80;99.90;;;;;;5095035;28;20006;-69
2022/10/22 08:30:47;;;;;;;;;;;16.90;99.90;;;;;;5094939;28;19912;-69
2022/10/22 08:33:12;;;;;;;;;;;17.00;99.90;;;;;;5095225;28;19908;-69
2022/10/22 08:35:37;;;;;;;;;;;17.10;99.90;;;;;;5095030;28;20385;-69
2022/10/22 08:38:03;;;;;;;;;;;17.90;99.90;;;;;;5093549;28;19912;-69
2022/10/22 08:40:32;;;;;;;;;;;18.60;99.90;;;;;;5093542;28;19962;-70
2022/10/22 08:43:08;;;;;;;;;;;19.20;99.90;;;;;;5094723;28;19915;-70
2022/10/22 08:45:40;;;;;;;;;;;19.50;99.90;;;;;;5094652;28;19908;-70
2022/10/22 08:48:13;;;;;;;;;;;19.60;99.90;;;;;;5094629;28;19969;-71
2022/10/22 08:50:40;;;;;;;;;;;20.10;99.90;;;;;;5094349;28;19924;-70
2022/10/22 08:53:07;;;;;;;;;;;20.30;99.90;;;;;;5094529;28;19908;-70
2022/10/22 08:55:33;;;;;;;;;;;20.40;99.90;;;;;;5094557;28;19908;-71
2022/10/22 08:58:04;;;;;;;;;;;20.60;99.90;;;;;;5094045;28;19908;-71
2022/10/22 09:00:33;;;;;;;;;;;21.00;99.90;;;;;;5093052;28;19919;-70
2022/10/22 09:03:06;;;;;;;;;;;21.10;99.90;;;;;;5094385;28;19908;-71
2022/10/22 09:05:38;;;;;;;;;;;21.40;99.90;;;;;;5094404;28;19908;-72
2022/10/22 09:08:04;;;;;;;;;;;21.00;99.90;;;;;;5094274;28;19998;-71
2022/10/22 09:10:33;;;;;;;;;;;21.00;99.90;;;;;;5094124;28;20405;-70
2022/10/22 09:12:58;;;;;;;;;;;20.30;99.90;;;;;;5092923;28;19908;-70
2022/10/22 09:15:24;;;;;;;;;;;20.10;99.90;;;;;;5094119;28;20006;-70
2022/10/22 09:18:01;;;;;;;;;;;20.10;99.90;;;;;;5094138;28;20266;-70
2022/10/22 09:20:31;;;;;;;;;;;19.90;99.90;;;;;;5094053;28;19961;-70
2022/10/22 09:23:03;;;;;;;;;;;19.60;99.90;;;;;;5093984;28;19908;-70
2022/10/22 09:25:30;;;;;;;;;;;19.70;99.90;;;;;;5094294;28;19915;-70
2022/10/22 09:27:57;;;;;;;;;;;20.00;99.90;;;;;;5094003;28;19908;-70
2022/10/22 09:30:32;;;;;;;;;;;19.90;99.90;;;;;;5093886;28;19912;-70
2022/10/22 09:33:00;;;;;;;;;;;19.60;99.90;;;;;;5093984;28;19931;-70
2022/10/22 09:35:26;;;;;;;;;;;19.00;99.90;;;;;;5092972;28;19915;-69
2022/10/22 09:37:53;;;;;;;;;;;18.70;99.90;;;;;;5093837;28;19908;-70
2022/10/22 09:40:19;;;;;;;;;;;18.60;99.90;;;;;;5094150;28;19972;-70
2022/10/22 09:42:45;;;;;;;;;;;18.40;99.90;;;;;;5093807;28;19908;-69
2022/10/22 09:45:15;;;;;;;;;;;18.20;99.90;;;;;;5093837;28;20289;-70
2022/10/22 09:47:41;;;;;;;;;;;18.10;99.90;;;;;;5093787;28;20002;-69
2022/10/22 09:50:19;;;;;;;;;;;17.70;99.90;;;;;;5093492;28;20416;-69
2022/10/22 09:52:45;;;;;;;;;;;17.50;99.90;;;;;;5093714;28;19915;-69
2022/10/22 09:55:13;;;;;;;;;;;17.40;99.90;;;;;;5094012;28;20281;-69
2022/10/22 09:57:39;;;;;;;;;;;17.40;99.90;;;;;;5093708;28;19915;-69
2022/10/22 10:00:07;;;;;;;;;;;17.20;99.90;;;;;;5093658;28;19908;-69
2022/10/22 10:02:32;;;;;;;;;;;17.00;99.90;;;;;;5092399;28;20028;-69
2022/10/22 10:05:04;;;;;;;;;;;16.80;99.90;;;;;;5093612;28;19938;-69
2022/10/22 10:07:31;;;;;;;;;;;16.60;99.90;;;;;;5093634;28;20333;-69
2022/10/22 10:09:56;;;;;;;;;;;16.50;99.90;;;;;;5093721;28;19989;-69
2022/10/22 10:12:33;;;;;;;;;;;16.50;99.90;;;;;;5097323;28;19912;-69
2022/10/22 10:15:16;;;;;;;;;;;16.50;99.90;;;;;;5097833;28;20361;-69
2022/10/22 10:17:47;;;;;;;;;;;16.40;99.90;;;;;;5097775;28;19931;-69
2022/10/22 10:20:33;;;;;;;;;;;16.30;99.90;;;;;;5097825;28;19912;-69
2022/10/22 10:23:18;;;;;;;;;;;16.30;99.90;;;;;;5097557;28;20398;-69
2022/10/22 10:26:05;;;;;;;;;;;16.40;99.90;;;;;;5096315;28;20313;-70
2022/10/22 10:31:19;;;;;;;;;;;16.60;99.90;;;;;;5144724;27;19915;-69
2022/10/22 10:33:50;;;;;;;;;;;16.80;99.90;;;;;;5111711;28;19912;-69
2022/10/22 10:36:36;;;;;;;;;;;17.00;99.90;;;;;;5111385;28;19939;-69
2022/10/22 10:39:22;;;;;;;;;;;17.50;99.90;;;;;;5111257;28;19908;-69
2022/10/22 10:41:54;;;;;;;;;;;17.90;99.90;;;;;;5110647;28;20064;-70
2022/10/22 10:44:40;;;;;;;;;;;18.00;99.90;;;;;;5111301;28;20354;-69
2022/10/22 10:47:13;;;;;;;;;;;18.10;99.90;;;;;;5110912;28;20365;-69
2022/10/22 10:49:40;;;;;;;;;;;18.00;99.90;;;;;;5110973;28;19919;-69
2022/10/22 10:52:25;;;;;;;;;;;18.10;99.90;;;;;;5111141;28;19912;-69
2022/10/22 10:55:08;;;;;;;;;;;17.80;99.90;;;;;;5111017;28;19943;-69
2022/10/22 10:57:53;;;;;;;;;;;17.60;99.90;;;;;;5111004;28;19908;-69
2022/10/22 11:00:20;;;;;;;;;;;17.40;99.90;;;;;;5110842;28;19912;-69
2022/10/22 11:03:01;;;;;;;;;;;17.20;99.90;;;;;;5111056;28;20354;-69
2022/10/22 11:05:31;;;;;;;;;;;17.10;99.90;;;;;;5110968;28;19908;-69
2022/10/22 11:08:01;;;;;;;;;;;17.10;99.90;;;;;;5110887;28;19912;-69
2022/10/22 11:10:46;;;;;;;;;;;17.10;99.90;;;;;;5111016;28;19963;-69
2022/10/22 11:13:32;;;;;;;;;;;17.00;99.90;;;;;;5110628;28;19908;-69
2022/10/22 11:16:01;;;;;;;;;;;16.90;99.90;;;;;;5109361;28;19908;-69
2022/10/22 11:18:34;;;;;;;;;;;16.90;99.90;;;;;;5109333;28;19971;-69
2022/10/22 11:21:20;;;;;;;;;;;16.80;99.90;;;;;;5109647;28;19932;-69
2022/10/22 11:23:55;;;;;;;;;;;16.80;99.90;;;;;;5110565;28;20273;-69
2022/10/22 11:26:26;;;;;;;;;;;16.70;99.90;;;;;;5110554;28;19908;-69
2022/10/22 11:28:52;;;;;;;;;;;16.70;99.90;;;;;;5110251;28;19908;-69
2022/10/22 11:31:19;;;;;;;;;;;16.60;99.90;;;;;;5110418;28;19912;-69
2022/10/22 11:33:51;;;;;;;;;;;16.60;99.90;;;;;;5109132;28;20277;-69
2022/10/22 11:36:19;;;;;;;;;;;16.60;99.90;;;;;;5109183;28;20018;-69
2022/10/22 11:38:45;;;;;;;;;;;16.60;99.90;;;;;;5110329;28;20354;-69
2022/10/22 11:41:12;;;;;;;;;;;16.60;99.90;;;;;;5104834;28;19955;-69
2022/10/22 11:43:59;;;;;;;;;;;16.70;99.90;;;;;;5096557;28;20365;-69
2022/10/22 11:46:27;;;;;;;;;;;16.70;99.90;;;;;;5096443;28;19962;-69
2022/10/22 11:49:01;;;;;;;;;;;16.80;99.90;;;;;;5096436;28;19908;-69
2022/10/22 11:51:28;;;;;;;;;;;16.90;99.90;;;;;;5078252;28;19912;-69
2022/10/22 11:53:56;;;;;;;;;;;16.90;99.90;;;;;;5095244;28;19930;-69
2022/10/22 11:56:23;;;;;;;;;;;17.10;99.90;;;;;;5078173;28;20273;-69
2022/10/22 11:58:49;;;;;;;;;;;17.20;99.90;;;;;;5096297;28;19909;-69
2022/10/22 12:01:20;;;;;;;;;;;17.40;99.90;;;;;;5095001;28;19957;-69
2022/10/22 12:04:05;;;;;;;;;;;17.50;99.90;;;;;;5078103;28;19909;-70
2022/10/22 12:06:48;;;;;;;;;;;17.60;99.90;;;;;;5094754;28;20006;-69
2022/10/22 12:09:13;;;;;;;;;;;17.70;99.90;;;;;;5096033;28;19920;-69
2022/10/22 12:11:44;;;;;;;;;;;17.60;99.90;;;;;;5095969;28;20005;-69
2022/10/22 12:14:15;;;;;;;;;;;17.60;99.90;;;;;;5095090;28;19915;-69
2022/10/22 12:16:43;;;;;;;;;;;17.70;99.90;;;;;;5096029;28;19957;-69
2022/10/22 12:19:12;;;;;;;;;;;17.70;99.90;;;;;;5095875;28;19916;-69
2022/10/22 12:21:38;;;;;;;;;;;17.60;99.90;;;;;;5095844;28;19995;-69
2022/10/22 12:24:04;;;;;;;;;;;17.50;99.90;;;;;;5095826;28;19912;-69
2022/10/22 12:26:33;;;;;;;;;;;17.60;99.90;;;;;;5094435;28;20419;-69
2022/10/22 12:29:01;;;;;;;;;;;17.60;99.90;;;;;;5095541;28;19954;-69
2022/10/22 12:31:27;;;;;;;;;;;17.50;99.90;;;;;;5095607;28;20011;-69
2022/10/22 12:33:56;;;;;;;;;;;17.40;99.90;;;;;;5094441;28;19973;-70
2022/10/22 12:36:24;;;;;;;;;;;17.30;99.90;;;;;;5095623;28;19914;-69
2022/10/22 12:38:49;;;;;;;;;;;17.30;99.90;;;;;;5095597;28;19908;-70
2022/10/22 12:41:15;;;;;;;;;;;17.20;99.90;;;;;;5095570;28;20354;-69
2022/10/22 12:43:40;;;;;;;;;;;17.20;99.90;;;;;;5095367;28;19940;-69
2022/10/22 12:46:12;;;;;;;;;;;17.10;99.90;;;;;;5095372;28;20445;-69
2022/10/22 12:48:40;;;;;;;;;;;17.10;99.90;;;;;;5095378;28;20284;-69
2022/10/22 12:51:07;;;;;;;;;;;17.10;99.90;;;;;;5095259;28;19963;-69
2022/10/22 12:53:36;;;;;;;;;;;17.10;99.90;;;;;;5094215;28;20357;-69
2022/10/22 12:56:03;;;;;;;;;;;17.10;99.90;;;;;;5095186;28;19908;-69
2022/10/22 12:58:40;;;;;;;;;;;17.20;99.90;;;;;;5093987;28;20270;-70
2022/10/22 13:01:06;;;;;;;;;;;17.20;99.90;;;;;;5093809;28;19908;-69
2022/10/22 13:03:33;;;;;;;;;;;17.20;99.90;;;;;;5094986;28;20011;-69
2022/10/22 13:06:18;;;;;;;;;;;17.20;99.90;;;;;;5094962;28;19999;-69
2022/10/22 13:08:44;;;;;;;;;;;17.20;99.90;;;;;;5095003;28;19915;-69
2022/10/22 13:11:10;;;;;;;;;;;17.20;99.90;;;;;;5094773;28;20331;-69
2022/10/22 13:13:42;;;;;;;;;;;17.20;99.90;;;;;;5093655;28;19912;-69
2022/10/22 13:16:16;;;;;;;;;;;17.10;99.90;;;;;;5094806;28;19964;-69
2022/10/22 13:18:42;;;;;;;;;;;17.10;99.90;;;;;;5095099;28;19909;-69
2022/10/22 13:21:19;;;;;;;;;;;17.10;99.90;;;;;;5094739;28;19908;-69
2022/10/22 13:23:50;;;;;;;;;;;17.10;99.90;;;;;;5094651;28;19908;-70
2022/10/22 13:26:16;;;;;;;;;;;17.00;99.90;;;;;;5094660;28;20397;-69
2022/10/22 13:28:48;;;;;;;;;;;17.00;99.90;;;;;;5093416;28;19908;-69
2022/10/22 13:31:16;;;;;;;;;;;17.00;99.90;;;;;;5094302;28;19920;-69
2022/10/22 13:33:43;;;;;;;;;;;16.90;99.90;;;;;;5094514;28;19998;-70
2022/10/22 13:36:11;;;;;;;;;;;16.90;99.90;;;;;;5094455;28;19973;-70
2022/10/22 13:38:37;;;;;;;;;;;16.90;99.90;;;;;;5094412;28;20265;-70
2022/10/22 13:41:03;;;;;;;;;;;16.90;99.90;;;;;;5094363;28;20277;-70
2022/10/22 13:43:29;;;;;;;;;;;16.90;99.90;;;;;;5093118;28;19908;-70
2022/10/22 13:45:56;;;;;;;;;;;16.90;99.90;;;;;;5094346;28;19908;-70
2022/10/22 13:48:22;;;;;;;;;;;16.90;99.90;;;;;;5094179;28;19931;-70
2022/10/22 13:50:49;;;;;;;;;;;17.00;99.90;;;;;;5093998;28;20357;-70
2022/10/22 13:53:16;;;;;;;;;;;17.20;99.90;;;;;;5094185;28;19995;-70
2022/10/22 13:55:44;;;;;;;;;;;17.30;99.90;;;;;;5094129;28;19908;-70
2022/10/22 13:58:10;;;;;;;;;;;17.40;99.90;;;;;;5092937;28;19908;-70
2022/10/22 14:00:37;;;;;;;;;;;17.50;99.90;;;;;;5094009;28;19915;-70
2022/10/22 14:03:03;;;;;;;;;;;17.50;99.90;;;;;;5094013;28;19962;-70
2022/10/22 14:05:31;;;;;;;;;;;17.40;99.90;;;;;;5093746;28;19908;-70
2022/10/22 14:07:59;;;;;;;;;;;17.40;99.90;;;;;;5093969;28;20377;-70
2022/10/22 14:10:25;;;;;;;;;;;17.30;99.90;;;;;;5093891;28;20014;-70
2022/10/22 14:12:51;;;;;;;;;;;17.30;99.90;;;;;;5093896;28;19943;-70
2022/10/22 14:15:18;;;;;;;;;;;17.20;99.90;;;;;;5093790;28;20428;-70
2022/10/22 14:17:45;;;;;;;;;;;17.10;99.90;;;;;;5093988;28;19915;-70
2022/10/22 14:20:17;;;;;;;;;;;17.00;99.90;;;;;;5092558;28;19912;-70
2022/10/22 14:22:43;;;;;;;;;;;16.90;99.90;;;;;;5093814;28;20061;-70
2022/10/22 14:25:12;;;;;;;;;;;16.90;99.90;;;;;;5092522;28;20277;-70
2022/10/22 14:27:37;;;;;;;;;;;16.80;99.90;;;;;;5093752;28;19912;-70